CPX306 Details

Departure: Chicago/Rockford International Airport (KRFD)
Arrival: Seattle-Tacoma International Airport (KSEA) at N/A
Route: RFD COTON J30 ODI KP90G KP09A DIK KU15Q GEG GLASR1
Notes:


Current Weather Information
KRFD 171654Z 10007KT 10SM FEW040 BKN150 BKN250 24/19 A2991 RMK AO2 SLP124 T02390194
KSEA 171653Z 20005KT 10SM SCT013 SCT027 OVC060 18/13 A3002 RMK AO2 SLP172 T01780128